CYAY

Saint Anthony Airport

St. Anthony, Canada
METAR CYAY 201000Z AUTO 23011KT 9SM CLR M26/M30 A3036 RMK ICG SLP287
Observed Flight Rules
Jan-20 @ 10:00 UTC (56 minutes ago) Visual Flight Rules
Wind Visibility Clouds
230° at 11 knots 9 miles
  • Clear skies
Temperatures Readings
Current -26°C / -15°F
Dewpoint -30°C / -22°F
Humidity 69%
Altimeter 30.36" Hg
Pressure 1028.7 hPa
Elevation 28
METAR CYAY 201000Z AUTO 23011KT 9SM CLR M26/M30 A3036 RMK ICG SLP287
Observed Flight Rules
Jan-20 @ 10:00 UTC
(56 minutes ago)
VFR
Wind Visibility
230° at 11 knots 9 miles
Clouds
  • Clear skies
Temperature Dewpoint
-26°C / -15°F -30°C / -22°F
Humidity Altimeter Pressure
69% 30.36" Hg 1028.7 hPa